createdAt,value
2024-03-24T00:00:47.129Z,94.38
2024-03-24T00:01:47.060Z,95.11
2024-03-24T00:02:47.344Z,95.84
2024-03-24T00:03:47.026Z,95.84
2024-03-24T00:04:47.165Z,95.84
2024-03-24T00:05:47.003Z,96.04
2024-03-24T00:06:47.056Z,96.67
2024-03-24T00:07:47.228Z,96.88
2024-03-24T00:08:47.106Z,96.78
2024-03-24T00:09:47.228Z,96.67
2024-03-24T00:10:47.232Z,97.19
2024-03-24T00:11:47.051Z,97.09
2024-03-24T00:12:47.166Z,97.19
2024-03-24T00:13:46.977Z,97.09
2024-03-24T00:14:47.143Z,97.13
2024-03-24T00:15:46.951Z,97.24
2024-03-24T00:16:47.007Z,97.24
2024-03-24T00:17:47.055Z,97.24
2024-03-24T00:18:47.062Z,97.34
2024-03-24T00:19:46.859Z,97.71
2024-03-24T00:20:46.871Z,97.81
2024-03-24T00:21:46.809Z,97.71
2024-03-24T00:22:46.963Z,97.09
2024-03-24T00:23:46.768Z,97.19
2024-03-24T00:24:46.994Z,97.30
2024-03-24T00:25:46.781Z,97.30
2024-03-24T00:26:46.871Z,97.30
2024-03-24T00:27:46.717Z,97.40
2024-03-24T00:28:46.998Z,97.61
2024-03-24T00:29:46.682Z,97.61
2024-03-24T00:30:46.788Z,97.19
2024-03-24T00:31:46.661Z,97.30
2024-03-24T00:32:46.705Z,97.50
2024-03-24T00:33:46.702Z,97.92
2024-03-24T00:34:46.873Z,98.02
2024-03-24T00:35:46.660Z,98.13
2024-03-24T00:36:46.804Z,98.44
2024-03-24T00:37:46.600Z,98.54
2024-03-24T00:38:46.755Z,98.44
2024-03-24T00:39:46.596Z,98.23
2024-03-24T00:40:46.690Z,98.23
2024-03-24T00:41:46.715Z,98.44
2024-03-24T00:42:46.561Z,98.65
2024-03-24T00:43:46.587Z,98.96
2024-03-24T00:44:46.522Z,99.16
2024-03-24T00:45:46.679Z,99.16
2024-03-24T00:46:46.481Z,99.37
2024-03-24T00:47:46.587Z,99.68
2024-03-24T00:48:46.474Z,99.90
2024-03-24T00:49:46.515Z,99.99
2024-03-24T00:50:46.432Z,99.99
2024-03-24T00:51:46.635Z,99.99
2024-03-24T00:52:46.441Z,99.99
2024-03-24T00:53:46.580Z,99.99
2024-03-24T00:54:46.380Z,99.99
2024-03-24T00:55:46.572Z,99.99
2024-03-24T00:56:46.382Z,99.99
2024-03-24T00:57:46.481Z,99.99
2024-03-24T00:58:46.406Z,99.99
2024-03-24T00:59:47.036Z,99.99
2024-03-24T01:00:46.376Z,99.99
2024-03-24T01:01:46.392Z,99.99
2024-03-24T01:02:46.300Z,99.99
2024-03-24T01:03:46.418Z,99.99
2024-03-24T01:04:46.279Z,99.99
2024-03-24T01:05:46.358Z,99.99
2024-03-24T01:06:46.255Z,99.99
2024-03-24T01:07:46.452Z,99.99
2024-03-24T01:08:46.374Z,99.99
2024-03-24T01:09:46.386Z,99.99
2024-03-24T01:10:46.278Z,99.99
2024-03-24T01:11:46.537Z,99.99
2024-03-24T01:12:46.269Z,99.99
2024-03-24T01:13:46.494Z,99.99
2024-03-24T01:14:46.140Z,99.99
2024-03-24T01:15:46.289Z,99.99
2024-03-24T01:16:46.128Z,99.99
2024-03-24T01:17:46.344Z,99.99
2024-03-24T01:18:46.114Z,99.99
2024-03-24T01:19:46.287Z,99.99
2024-03-24T01:20:46.048Z,99.99
2024-03-24T01:21:46.152Z,99.99
2024-03-24T01:22:46.067Z,99.99
2024-03-24T01:23:46.172Z,99.99
2024-03-24T01:24:46.002Z,99.99
2024-03-24T01:25:46.160Z,99.99
2024-03-24T01:26:45.992Z,99.99
2024-03-24T01:27:46.180Z,99.99
2024-03-24T01:28:46.074Z,99.99
2024-03-24T01:29:45.997Z,99.99
2024-03-24T01:30:45.962Z,99.99
2024-03-24T01:31:46.095Z,99.99
2024-03-24T01:32:45.914Z,99.99
2024-03-24T01:33:46.123Z,99.99
2024-03-24T01:34:46.043Z,99.99
2024-03-24T01:35:45.899Z,99.99
2024-03-24T01:36:45.954Z,99.99
2024-03-24T01:37:45.917Z,99.99
2024-03-24T01:38:46.034Z,99.99
2024-03-24T01:39:45.996Z,99.99
2024-03-24T01:40:45.950Z,99.99
2024-03-24T01:41:45.820Z,99.99
2024-03-24T01:42:45.966Z,99.99
2024-03-24T01:43:45.950Z,99.99
2024-03-24T01:44:45.986Z,99.99
2024-03-24T01:45:46.120Z,99.99
2024-03-24T01:46:45.767Z,99.99
2024-03-24T01:47:45.840Z,99.99
2024-03-24T01:48:45.705Z,99.99
2024-03-24T01:49:45.907Z,99.99
2024-03-24T01:50:45.816Z,99.99
2024-03-24T01:51:45.683Z,99.99
2024-03-24T01:52:45.765Z,99.99
2024-03-24T01:53:45.657Z,99.99
2024-03-24T01:54:45.935Z,99.99
2024-03-24T01:55:45.697Z,99.99
2024-03-24T01:56:45.779Z,99.99
2024-03-24T01:57:45.648Z,99.99
2024-03-24T01:58:45.769Z,99.99
2024-03-24T01:59:45.607Z,99.99
2024-03-24T02:00:45.850Z,99.99
2024-03-24T02:01:45.699Z,99.99
2024-03-24T02:02:45.960Z,99.99
2024-03-24T02:03:45.558Z,99.67
2024-03-24T02:04:45.733Z,99.46
2024-03-24T02:05:45.705Z,99.26
2024-03-24T02:06:45.765Z,99.36
2024-03-24T02:07:45.623Z,99.26
2024-03-24T02:08:45.639Z,99.41
2024-03-24T02:09:45.459Z,99.51
2024-03-24T02:10:45.573Z,99.72
2024-03-24T02:11:45.448Z,99.99
2024-03-24T02:12:45.563Z,99.99
2024-03-24T02:13:45.404Z,99.99
2024-03-24T02:14:45.563Z,99.99
2024-03-24T02:15:45.446Z,99.99
2024-03-24T02:16:45.462Z,99.99
2024-03-24T02:17:46.038Z,99.99
2024-03-24T02:18:46.732Z,99.99
2024-03-24T02:19:45.373Z,99.99
2024-03-24T02:20:45.396Z,99.99
2024-03-24T02:21:45.313Z,99.99
2024-03-24T02:22:45.344Z,99.99
2024-03-24T02:23:45.290Z,99.99
2024-03-24T02:24:45.332Z,99.99
2024-03-24T02:25:45.260Z,99.99
2024-03-24T02:26:45.465Z,99.99
2024-03-24T02:27:45.509Z,99.99
2024-03-24T02:28:45.284Z,99.99
2024-03-24T02:29:45.373Z,99.99
2024-03-24T02:30:45.246Z,99.99
2024-03-24T02:31:45.302Z,99.99
2024-03-24T02:32:45.178Z,99.99
2024-03-24T02:33:45.216Z,99.99
2024-03-24T02:34:45.193Z,99.99
2024-03-24T02:35:45.198Z,99.99
2024-03-24T02:36:45.111Z,99.99
2024-03-24T02:37:45.352Z,99.99
2024-03-24T02:38:45.075Z,99.99
2024-03-24T02:39:45.150Z,99.99
2024-03-24T02:40:47.209Z,99.99
2024-03-24T02:41:45.246Z,99.99
2024-03-24T02:42:45.081Z,99.99
2024-03-24T02:43:45.135Z,99.99
2024-03-24T02:44:45.035Z,99.99
2024-03-24T02:45:45.040Z,99.99
2024-03-24T02:46:45.546Z,99.99
2024-03-24T02:47:45.057Z,99.99
2024-03-24T02:48:44.989Z,99.99
2024-03-24T02:49:44.972Z,99.99
2024-03-24T02:50:44.946Z,99.99
2024-03-24T02:51:45.013Z,99.99
2024-03-24T02:52:44.963Z,99.99
2024-03-24T02:53:45.021Z,99.99
2024-03-24T02:54:44.934Z,99.99
2024-03-24T02:55:44.906Z,99.99
2024-03-24T02:56:44.904Z,99.99
2024-03-24T02:57:44.932Z,99.99
2024-03-24T02:58:44.847Z,99.99
2024-03-24T02:59:44.971Z,99.99
2024-03-24T03:00:44.854Z,99.99
2024-03-24T03:01:44.868Z,99.99
2024-03-24T03:02:44.834Z,99.99
2024-03-24T03:03:44.898Z,99.99
2024-03-24T03:04:44.800Z,99.99
2024-03-24T03:05:44.771Z,99.99
2024-03-24T03:06:44.775Z,99.99
2024-03-24T03:07:44.897Z,99.99
2024-03-24T03:08:44.731Z,99.99
2024-03-24T03:09:45.034Z,99.99
2024-03-24T03:10:44.768Z,99.99
2024-03-24T03:11:44.727Z,99.99
2024-03-24T03:12:44.671Z,99.99
2024-03-24T03:13:45.574Z,99.99
2024-03-24T03:14:44.728Z,99.99
2024-03-24T03:15:44.700Z,99.99
2024-03-24T03:16:44.622Z,99.99
2024-03-24T03:17:44.649Z,99.99
2024-03-24T03:18:44.627Z,99.99
2024-03-24T03:19:44.669Z,99.99
2024-03-24T03:20:44.715Z,99.99
2024-03-24T03:21:44.569Z,99.99
2024-03-24T03:22:44.588Z,99.99
2024-03-24T03:23:44.527Z,99.99
2024-03-24T03:24:44.728Z,99.99
2024-03-24T03:25:44.535Z,99.99
2024-03-24T03:26:44.659Z,99.99
2024-03-24T03:27:44.529Z,99.99
2024-03-24T03:28:44.552Z,99.99
2024-03-24T03:29:44.467Z,99.99
2024-03-24T03:30:44.643Z,99.99
2024-03-24T03:31:44.444Z,99.99
2024-03-24T03:32:44.492Z,99.99
2024-03-24T03:33:44.403Z,99.99
2024-03-24T03:34:44.496Z,99.99
2024-03-24T03:35:44.396Z,99.99
2024-03-24T03:36:44.494Z,99.99
2024-03-24T03:37:44.354Z,99.99
2024-03-24T03:38:44.399Z,99.99
2024-03-24T03:39:44.342Z,99.96
2024-03-24T03:40:45.056Z,99.75
2024-03-24T03:41:44.314Z,99.80
2024-03-24T03:42:44.453Z,99.96
2024-03-24T03:43:44.279Z,99.96
2024-03-24T03:44:44.351Z,99.85
2024-03-24T03:45:44.310Z,99.85
2024-03-24T03:46:44.375Z,99.96
2024-03-24T03:47:44.236Z,99.99
2024-03-24T03:48:44.395Z,99.99
2024-03-24T03:49:44.235Z,99.99
2024-03-24T03:50:45.440Z,99.99
2024-03-24T03:51:44.186Z,99.96
2024-03-24T03:52:44.425Z,99.99
2024-03-24T03:53:44.156Z,99.96
2024-03-24T03:54:45.130Z,99.99
2024-03-24T03:55:44.135Z,99.96
2024-03-24T03:56:44.331Z,99.65
2024-03-24T03:57:44.127Z,99.44
2024-03-24T03:58:45.202Z,99.33
2024-03-24T03:59:44.146Z,99.13
2024-03-24T04:00:44.328Z,99.13
2024-03-24T04:01:44.125Z,99.02
2024-03-24T04:02:44.155Z,99.02
2024-03-24T04:03:44.052Z,98.71
2024-03-24T04:04:44.179Z,98.77
2024-03-24T04:05:44.154Z,98.82
2024-03-24T04:06:44.223Z,98.82
2024-03-24T04:07:44.029Z,99.02
2024-03-24T04:08:44.210Z,98.92
2024-03-24T04:09:43.956Z,98.66
2024-03-24T04:10:45.082Z,98.56
2024-03-24T04:11:43.979Z,98.66
2024-03-24T04:12:44.029Z,98.35
2024-03-24T04:13:43.931Z,98.35
2024-03-24T04:14:44.034Z,98.46
2024-03-24T04:15:43.896Z,98.04
2024-03-24T04:16:43.995Z,97.72
2024-03-24T04:17:43.910Z,97.52
2024-03-24T04:18:44.187Z,97.16
2024-03-24T04:19:43.863Z,97.20
2024-03-24T04:20:43.940Z,96.95
2024-03-24T04:21:43.810Z,96.95
2024-03-24T04:22:44.967Z,96.85
2024-03-24T04:23:43.793Z,96.64
2024-03-24T04:24:44.988Z,96.95
2024-03-24T04:25:43.829Z,96.85
2024-03-24T04:26:43.881Z,96.85
2024-03-24T04:27:43.752Z,96.64
2024-03-24T04:28:43.851Z,96.75
2024-03-24T04:29:43.739Z,96.53
2024-03-24T04:30:43.969Z,96.64
2024-03-24T04:31:43.817Z,96.75
2024-03-24T04:32:43.775Z,96.18
2024-03-24T04:33:43.677Z,95.76
2024-03-24T04:34:43.881Z,95.45
2024-03-24T04:35:43.686Z,95.45
2024-03-24T04:37:04.763Z,95.45
2024-03-24T04:37:43.632Z,95.66
2024-03-24T04:38:44.742Z,95.76
2024-03-24T04:39:43.603Z,95.87
2024-03-24T04:40:44.761Z,95.76
2024-03-24T04:41:43.589Z,95.72
2024-03-24T04:42:44.823Z,96.03
2024-03-24T04:43:43.546Z,95.51
2024-03-24T04:44:43.650Z,95.83
2024-03-24T04:45:43.533Z,96.03
2024-03-24T04:46:43.695Z,96.45
2024-03-24T04:47:43.511Z,96.55
2024-03-24T04:48:43.716Z,96.76
2024-03-24T04:49:43.501Z,96.66
2024-03-24T04:50:43.772Z,97.01
2024-03-24T04:51:43.449Z,97.22
2024-03-24T04:52:45.617Z,97.70
2024-03-24T04:53:43.422Z,97.59
2024-03-24T04:54:43.567Z,97.49
2024-03-24T04:55:43.439Z,97.80
2024-03-24T04:56:43.702Z,97.80
2024-03-24T04:57:43.368Z,97.38
2024-03-24T04:58:43.485Z,97.28
2024-03-24T04:59:43.345Z,97.38
2024-03-24T05:00:43.600Z,97.59
2024-03-24T05:01:43.472Z,97.07
2024-03-24T05:02:43.305Z,97.12
2024-03-24T05:03:43.441Z,97.12
2024-03-24T05:04:44.276Z,97.12
2024-03-24T05:05:43.698Z,97.43
2024-03-24T05:06:43.283Z,97.64
2024-03-24T05:07:43.578Z,97.85
2024-03-24T05:08:43.240Z,97.95
2024-03-24T05:09:43.627Z,98.20
2024-03-24T05:10:43.244Z,98.41
2024-03-24T05:11:43.477Z,98.52
2024-03-24T05:12:43.388Z,98.62
2024-03-24T05:13:43.167Z,98.83
2024-03-24T05:14:43.324Z,99.14
2024-03-24T05:15:44.144Z,99.24
2024-03-24T05:16:43.400Z,99.45
2024-03-24T05:17:43.395Z,99.55
2024-03-24T05:18:43.109Z,99.55
2024-03-24T05:19:43.361Z,99.55
2024-03-24T05:20:43.117Z,99.55
2024-03-24T05:21:43.384Z,99.45
2024-03-24T05:22:43.067Z,99.35
2024-03-24T05:23:43.384Z,99.35
2024-03-24T05:24:43.070Z,99.35
2024-03-24T05:25:43.327Z,99.35
2024-03-24T05:26:43.058Z,99.55
2024-03-24T05:27:43.288Z,99.66
2024-03-24T05:28:50.335Z,99.87
2024-03-24T05:29:43.019Z,99.87
2024-03-24T05:30:43.228Z,99.82
2024-03-24T05:31:43.119Z,99.93
2024-03-24T05:32:43.585Z,99.93
2024-03-24T05:33:43.266Z,99.99
2024-03-24T05:34:42.964Z,99.99
2024-03-24T05:35:43.021Z,99.99
2024-03-24T05:36:43.119Z,99.99
2024-03-24T05:37:43.246Z,99.99
2024-03-24T05:38:43.122Z,99.99
2024-03-24T05:39:42.882Z,99.99
2024-03-24T05:40:43.171Z,99.99
2024-03-24T05:41:42.887Z,99.99
2024-03-24T05:42:42.976Z,99.99
2024-03-24T05:43:42.825Z,99.99
2024-03-24T05:44:43.139Z,99.99
2024-03-24T05:45:42.791Z,99.99
2024-03-24T05:46:43.027Z,99.99
2024-03-24T05:47:42.786Z,99.99
2024-03-24T05:48:42.915Z,99.99
2024-03-24T05:49:42.733Z,99.99
2024-03-24T05:50:42.843Z,99.99
2024-03-24T05:51:42.704Z,99.99
2024-03-24T05:52:42.948Z,99.99
2024-03-24T05:53:42.723Z,99.99
2024-03-24T05:54:42.998Z,99.99
2024-03-24T05:55:42.653Z,99.99
2024-03-24T05:56:42.812Z,99.99
2024-03-24T05:57:42.624Z,99.99
2024-03-24T05:58:42.827Z,99.99
2024-03-24T05:59:42.632Z,99.99
2024-03-24T06:00:42.819Z,99.99
2024-03-24T06:01:44.710Z,99.99
2024-03-24T06:02:42.731Z,99.99
2024-03-24T06:03:42.561Z,99.67
2024-03-24T06:04:42.800Z,99.77
2024-03-24T06:05:42.595Z,99.77
2024-03-24T06:06:42.782Z,99.67
2024-03-24T06:07:42.544Z,99.57
2024-03-24T06:08:42.703Z,99.46
2024-03-24T06:09:42.486Z,99.88
2024-03-24T06:10:42.792Z,99.99
2024-03-24T06:11:42.492Z,99.99
2024-03-24T06:12:44.770Z,99.99
2024-03-24T06:13:42.438Z,99.99
2024-03-24T06:14:42.627Z,99.99
2024-03-24T06:15:42.643Z,99.99
2024-03-24T06:16:42.427Z,99.99
2024-03-24T06:17:42.502Z,99.99
2024-03-24T06:18:42.386Z,99.99
2024-03-24T06:19:42.637Z,99.99
2024-03-24T06:20:42.355Z,99.99
2024-03-24T06:21:57.181Z,99.99
2024-03-24T06:22:42.396Z,99.99
2024-03-24T06:23:42.463Z,99.99
2024-03-24T06:24:42.298Z,99.99
2024-03-24T06:25:42.494Z,99.99
2024-03-24T06:26:42.603Z,99.99
2024-03-24T06:27:42.293Z,99.99
2024-03-24T06:28:42.396Z,99.99
2024-03-24T06:29:42.253Z,99.99
2024-03-24T06:30:42.497Z,99.99
2024-03-24T06:31:46.275Z,99.99
2024-03-24T06:32:42.217Z,99.99
2024-03-24T06:33:42.355Z,99.99
2024-03-24T06:34:42.287Z,99.99
2024-03-24T06:35:42.450Z,99.99
2024-03-24T06:36:42.390Z,99.99
2024-03-24T06:37:42.468Z,99.99
2024-03-24T06:38:42.197Z,99.99
2024-03-24T06:39:42.345Z,99.99
2024-03-24T06:40:42.163Z,99.99
2024-03-24T06:41:42.413Z,99.99
2024-03-24T06:42:42.094Z,99.99
2024-03-24T06:43:42.390Z,99.99
2024-03-24T06:44:42.204Z,99.99
2024-03-24T06:45:42.318Z,99.99
2024-03-24T06:46:42.026Z,99.99
2024-03-24T06:47:42.346Z,99.99
2024-03-24T06:48:42.250Z,99.99
2024-03-24T06:49:42.161Z,99.99
2024-03-24T06:50:41.998Z,99.99
2024-03-24T06:51:42.311Z,99.99
2024-03-24T06:52:42.078Z,99.99
2024-03-24T06:55:03.437Z,99.99
2024-03-24T06:56:04.240Z,99.99
2024-03-24T06:57:04.401Z,99.99
2024-03-24T06:58:04.373Z,99.99
2024-03-24T06:59:04.204Z,99.99
2024-03-24T07:00:04.929Z,99.99
2024-03-24T07:01:04.393Z,99.99
2024-03-24T07:02:04.285Z,99.99
2024-03-24T07:03:05.140Z,99.99
2024-03-24T07:04:04.385Z,99.99
2024-03-24T07:05:04.249Z,99.95
2024-03-24T07:06:04.259Z,99.64
2024-03-24T07:07:04.192Z,99.85
2024-03-24T07:08:04.460Z,99.64
2024-03-24T07:09:04.252Z,99.64
2024-03-24T07:10:05.232Z,99.74
2024-03-24T07:11:04.238Z,99.43
2024-03-24T07:12:04.269Z,99.64
2024-03-24T07:13:04.135Z,99.85
2024-03-24T07:14:04.191Z,99.99
2024-03-24T07:15:04.485Z,99.74
2024-03-24T07:16:04.250Z,99.12
2024-03-24T07:17:04.307Z,98.60
2024-03-24T07:18:04.382Z,98.81
2024-03-24T07:19:04.110Z,98.60
2024-03-24T07:20:04.278Z,98.39
2024-03-24T07:21:04.002Z,98.91
2024-03-24T07:22:04.301Z,99.07
2024-03-24T07:23:04.071Z,98.86
2024-03-24T07:24:04.091Z,98.97
2024-03-24T07:25:03.919Z,98.97
2024-03-24T07:26:05.883Z,98.66
2024-03-24T07:27:03.948Z,98.51
2024-03-24T07:28:03.946Z,98.72
2024-03-24T07:29:03.888Z,98.55
2024-03-24T07:30:04.242Z,98.03
2024-03-24T07:31:03.918Z,98.35
2024-03-24T07:32:04.040Z,98.35
2024-03-24T07:33:03.781Z,98.45
2024-03-24T07:34:04.539Z,98.29
2024-03-24T07:35:05.050Z,98.39
2024-03-24T07:36:03.918Z,98.50
2024-03-24T07:37:03.720Z,98.50
2024-03-24T07:38:03.864Z,98.19
2024-03-24T07:39:03.734Z,97.88
2024-03-24T07:40:03.901Z,98.14
2024-03-24T07:41:03.733Z,98.51
2024-03-24T07:42:06.076Z,98.72
2024-03-24T07:43:03.663Z,97.37
2024-03-24T07:44:03.935Z,97.06
2024-03-24T07:45:03.679Z,96.95
2024-03-24T07:46:03.822Z,96.64
2024-03-24T07:47:03.652Z,96.75
2024-03-24T07:48:03.756Z,96.85
2024-03-24T07:49:04.286Z,96.79
2024-03-24T07:50:03.835Z,96.75
2024-03-24T07:51:03.565Z,96.75
2024-03-24T07:52:04.264Z,96.50
2024-03-24T07:53:03.631Z,96.70
2024-03-24T07:54:03.728Z,96.76
2024-03-24T07:55:03.529Z,95.31
2024-03-24T07:56:03.698Z,94.68
2024-03-24T07:57:04.474Z,95.10
2024-03-24T07:58:03.708Z,94.48
2024-03-24T07:59:04.328Z,93.96
2024-03-24T08:00:03.637Z,94.64
2024-03-24T08:01:03.457Z,94.02
2024-03-24T08:02:03.633Z,93.81
2024-03-24T08:03:03.425Z,93.96
2024-03-24T08:04:03.518Z,94.32
2024-03-24T08:05:03.414Z,94.94
2024-03-24T08:06:03.748Z,94.84
2024-03-24T08:07:03.414Z,95.56
2024-03-24T08:08:03.552Z,95.77
2024-03-24T08:09:03.384Z,95.72
2024-03-24T08:10:03.446Z,95.41
2024-03-24T08:11:03.495Z,95.37
2024-03-24T08:12:03.421Z,94.60
2024-03-24T08:13:03.665Z,94.49
2024-03-24T08:14:03.627Z,92.28
2024-03-24T08:15:04.128Z,90.10
2024-03-24T08:16:03.623Z,91.14
2024-03-24T08:17:03.452Z,88.79
2024-03-24T08:18:04.120Z,89.21
2024-03-24T08:19:03.585Z,89.94
2024-03-24T08:20:03.739Z,88.84
2024-03-24T08:21:03.491Z,88.94
2024-03-24T08:22:03.440Z,88.73
2024-03-24T08:23:03.199Z,89.36
2024-03-24T08:24:03.441Z,90.29
2024-03-24T08:25:03.179Z,91.85
2024-03-24T08:26:03.255Z,91.22
2024-03-24T08:27:03.145Z,91.43
2024-03-24T08:28:03.329Z,90.97
2024-03-24T08:29:03.365Z,91.08
2024-03-24T08:30:03.692Z,88.59
2024-03-24T08:31:03.132Z,87.87
2024-03-24T08:32:04.215Z,89.00
2024-03-24T08:33:03.245Z,90.87
2024-03-24T08:34:03.446Z,91.45
2024-03-24T08:35:03.155Z,90.68
2024-03-24T08:36:03.283Z,88.78
2024-03-24T08:37:03.309Z,87.02
2024-03-24T08:38:03.303Z,84.16
2024-03-24T08:39:03.161Z,84.37
2024-03-24T08:40:03.161Z,85.40
2024-03-24T08:41:02.977Z,85.19
2024-03-24T08:42:03.440Z,85.55
2024-03-24T08:43:03.004Z,85.55
2024-03-24T08:44:03.295Z,86.72
2024-03-24T08:45:02.887Z,88.79
2024-03-24T08:46:03.240Z,88.13
2024-03-24T08:47:03.061Z,86.58
2024-03-24T08:48:03.211Z,85.65
2024-03-24T08:49:03.031Z,86.79
2024-03-24T08:50:03.117Z,87.99
2024-03-24T08:51:03.042Z,85.47
2024-03-24T08:52:02.982Z,86.40
2024-03-24T08:53:02.889Z,85.68
2024-03-24T08:54:03.210Z,84.64
2024-03-24T08:55:02.807Z,84.33
2024-03-24T08:56:04.241Z,84.64
2024-03-24T08:57:02.931Z,85.19
2024-03-24T08:58:03.092Z,85.92
2024-03-24T08:59:03.060Z,83.75
2024-03-24T09:00:04.773Z,85.61
2024-03-24T09:01:04.126Z,85.30
2024-03-24T09:02:05.240Z,87.37
2024-03-24T09:03:02.809Z,84.68
2024-03-24T09:04:03.180Z,84.68
2024-03-24T09:05:02.885Z,85.26
2024-03-24T09:06:02.887Z,84.39
2024-03-24T09:07:02.680Z,84.87
2024-03-24T09:08:03.003Z,82.60
2024-03-24T09:09:02.783Z,80.32
2024-03-24T09:10:03.049Z,79.05
2024-03-24T09:11:02.703Z,80.60
2024-03-24T09:12:02.723Z,80.76
2024-03-24T09:13:02.742Z,80.56
2024-03-24T09:14:04.039Z,83.93
2024-03-24T09:15:02.949Z,79.59
2024-03-24T09:16:04.949Z,78.21
2024-03-24T09:17:02.594Z,80.38
2024-03-24T09:18:03.168Z,83.03
2024-03-24T09:19:02.571Z,81.31
2024-03-24T09:20:02.768Z,81.51
2024-03-24T09:21:02.535Z,76.15
2024-03-24T09:22:04.443Z,79.35
2024-03-24T09:23:02.459Z,78.83
2024-03-24T09:24:02.600Z,77.70
2024-03-24T09:25:02.377Z,78.18
2024-03-24T09:26:02.703Z,76.56
2024-03-24T09:27:02.395Z,77.76
2024-03-24T09:28:16.583Z,74.98
2024-03-24T09:29:02.310Z,77.93
2024-03-24T09:30:02.536Z,77.00
2024-03-24T09:31:02.318Z,76.63
2024-03-24T09:32:02.510Z,79.41
2024-03-24T09:33:02.312Z,75.36
2024-03-24T09:34:02.522Z,77.35
2024-03-24T09:35:11.974Z,78.28
2024-03-24T09:36:02.266Z,80.04
2024-03-24T09:37:02.650Z,78.31
2024-03-24T09:38:02.268Z,78.01
2024-03-24T09:39:02.390Z,78.05
2024-03-24T09:40:02.274Z,78.97
2024-03-24T09:41:02.758Z,79.18
2024-03-24T09:42:02.391Z,81.56
2024-03-24T09:43:02.568Z,81.10
2024-03-24T09:44:02.539Z,79.25
2024-03-24T09:45:02.383Z,77.94
2024-03-24T09:46:02.175Z,76.18
2024-03-24T09:47:02.235Z,79.22
2024-03-24T09:48:02.154Z,75.49
2024-03-24T09:49:02.238Z,76.46
2024-03-24T09:50:02.180Z,78.42
2024-03-24T09:51:02.284Z,78.36
2024-03-24T09:52:02.120Z,78.67
2024-03-24T09:53:02.304Z,78.39
2024-03-24T09:54:02.163Z,78.91
2024-03-24T09:55:02.020Z,79.12
2024-03-24T09:56:02.404Z,77.05
2024-03-24T09:57:02.092Z,79.63
2024-03-24T09:58:10.392Z,78.70
2024-03-24T09:59:01.969Z,77.15
2024-03-24T10:00:02.035Z,78.60
2024-03-24T10:01:01.971Z,77.05
2024-03-24T10:02:02.017Z,77.98
2024-03-24T10:03:01.946Z,78.19
2024-03-24T10:04:02.027Z,77.91
2024-03-24T10:05:01.891Z,76.67
2024-03-24T10:06:02.051Z,78.95
2024-03-24T10:07:01.887Z,77.26
2024-03-24T10:08:02.095Z,78.50
2024-03-24T10:09:01.849Z,76.78
2024-03-24T10:10:02.582Z,78.33
2024-03-24T10:11:01.830Z,76.46
2024-03-24T10:12:01.987Z,79.26
2024-03-24T10:13:01.829Z,80.29
2024-03-24T10:14:01.992Z,79.33
2024-03-24T10:15:01.827Z,78.19
2024-03-24T10:16:01.847Z,79.19
2024-03-24T10:17:01.734Z,76.84
2024-03-24T10:18:01.924Z,77.98
2024-03-24T10:19:01.771Z,77.87
2024-03-24T10:20:02.136Z,77.47
2024-03-24T10:21:02.527Z,75.81
2024-03-24T10:22:01.983Z,76.22
2024-03-24T10:23:01.737Z,77.15
2024-03-24T10:24:02.022Z,75.50
2024-03-24T10:25:01.827Z,75.50
2024-03-24T10:26:01.848Z,76.43
2024-03-24T10:27:01.643Z,76.18
2024-03-24T10:28:01.900Z,75.05
2024-03-24T10:29:01.669Z,75.67
2024-03-24T10:30:02.909Z,76.29
2024-03-24T10:31:01.929Z,77.43
2024-03-24T10:32:03.223Z,74.71
2024-03-24T10:33:01.539Z,75.81
2024-03-24T10:34:01.792Z,73.88
2024-03-24T10:35:03.917Z,74.08
2024-03-24T10:36:03.574Z,75.32
2024-03-24T10:37:01.519Z,75.39
2024-03-24T10:38:01.546Z,74.50
2024-03-24T10:39:01.699Z,76.67
2024-03-24T10:40:01.580Z,76.98
2024-03-24T10:41:01.472Z,76.12
2024-03-24T10:42:01.730Z,75.87
2024-03-24T10:43:01.864Z,75.57
2024-03-24T10:44:01.706Z,74.19
2024-03-24T10:45:01.539Z,72.74
2024-03-24T10:46:01.802Z,73.68
2024-03-24T10:47:02.328Z,75.18
2024-03-24T10:48:01.415Z,73.26
2024-03-24T10:49:01.625Z,71.48
2024-03-24T10:50:01.368Z,70.97
2024-03-24T10:51:01.541Z,69.60
2024-03-24T10:52:01.340Z,69.46
2024-03-24T10:53:01.444Z,67.00
2024-03-24T10:54:01.358Z,66.36
2024-03-24T10:55:01.419Z,66.70
2024-03-24T10:56:01.276Z,66.09
2024-03-24T10:57:01.473Z,65.36
2024-03-24T10:58:01.392Z,64.20
2024-03-24T10:59:02.936Z,64.20
2024-03-24T11:00:01.448Z,61.54
2024-03-24T11:01:01.682Z,61.88
2024-03-24T11:02:01.255Z,66.78
2024-03-24T11:03:01.476Z,63.24
2024-03-24T11:04:01.266Z,66.24
2024-03-24T11:05:01.666Z,66.98
2024-03-24T11:06:02.172Z,66.33
2024-03-24T11:07:01.400Z,65.74
2024-03-24T11:08:01.386Z,68.55
2024-03-24T11:09:01.368Z,64.50
2024-03-24T11:10:01.490Z,64.26
2024-03-24T11:11:01.407Z,62.65
2024-03-24T11:12:01.389Z,63.15
2024-03-24T11:13:01.389Z,66.73
2024-03-24T11:14:01.094Z,71.35
2024-03-24T11:15:01.321Z,66.07
2024-03-24T11:16:02.597Z,70.42
2024-03-24T11:17:01.284Z,71.17
2024-03-24T11:18:01.029Z,71.17
2024-03-24T11:19:01.047Z,69.28
2024-03-24T11:20:01.015Z,70.24
2024-03-24T11:21:01.344Z,70.45
2024-03-24T11:22:00.956Z,68.96
2024-03-24T11:23:01.511Z,72.37
2024-03-24T11:24:01.110Z,72.67
2024-03-24T11:25:01.425Z,71.92
2024-03-24T11:26:00.969Z,68.93
2024-03-24T11:27:01.308Z,69.35
2024-03-24T11:28:00.995Z,70.51
2024-03-24T11:29:00.909Z,71.75
2024-03-24T11:30:01.046Z,70.03
2024-03-24T11:31:00.803Z,71.34
2024-03-24T11:32:01.119Z,72.06
2024-03-24T11:33:01.023Z,72.75
2024-03-24T11:34:01.080Z,71.61
2024-03-24T11:35:00.808Z,74.16
2024-03-24T11:36:01.011Z,72.09
2024-03-24T11:37:00.906Z,73.40
2024-03-24T11:38:00.922Z,70.10
2024-03-24T11:39:00.910Z,69.49
2024-03-24T11:40:02.336Z,72.27
2024-03-24T11:41:00.999Z,73.13
2024-03-24T11:42:01.509Z,71.27
2024-03-24T11:43:00.996Z,72.51
2024-03-24T11:44:01.412Z,71.58
2024-03-24T11:45:00.830Z,69.96
2024-03-24T11:46:01.190Z,73.47
2024-03-24T11:47:01.010Z,72.67
2024-03-24T11:48:01.846Z,74.05
2024-03-24T11:49:00.725Z,75.49
2024-03-24T11:50:01.009Z,73.74
2024-03-24T11:51:00.631Z,75.39
2024-03-24T11:52:01.045Z,72.44
2024-03-24T11:53:00.879Z,73.36
2024-03-24T11:54:00.716Z,74.08
2024-03-24T11:55:00.607Z,72.26
2024-03-24T11:56:00.666Z,74.19
2024-03-24T11:57:01.067Z,73.05
2024-03-24T11:58:00.890Z,72.64
2024-03-24T11:59:00.736Z,73.47
2024-03-24T12:00:00.943Z,75.32
2024-03-24T12:01:00.846Z,73.05
2024-03-24T12:02:00.791Z,73.36
2024-03-24T12:03:00.808Z,75.49
2024-03-24T12:04:00.650Z,73.09
2024-03-24T12:05:00.574Z,71.34
2024-03-24T12:06:00.709Z,73.30
2024-03-24T12:07:00.434Z,72.37
2024-03-24T12:08:00.617Z,73.74
2024-03-24T12:09:01.172Z,72.61
2024-03-24T12:10:00.591Z,72.09
2024-03-24T12:11:00.368Z,70.65
2024-03-24T12:12:00.418Z,70.96
2024-03-24T12:13:00.425Z,69.83
2024-03-24T12:14:00.369Z,71.30
2024-03-24T12:15:01.503Z,71.20
2024-03-24T12:16:00.486Z,72.88
2024-03-24T12:17:00.518Z,71.95
2024-03-24T12:18:00.253Z,72.67
2024-03-24T12:19:00.873Z,71.72
2024-03-24T12:20:00.386Z,70.76
2024-03-24T12:21:00.440Z,71.55
2024-03-24T12:22:00.161Z,69.63
2024-03-24T12:23:00.270Z,68.02
2024-03-24T12:24:00.334Z,67.95
2024-03-24T12:25:00.313Z,68.88
2024-03-24T12:26:00.474Z,68.23
2024-03-24T12:27:00.524Z,66.76
2024-03-24T12:28:01.040Z,67.10
2024-03-24T12:29:00.402Z,66.00
2024-03-24T12:30:00.315Z,66.10
2024-03-24T12:31:00.275Z,66.03
2024-03-24T12:32:00.101Z,67.65
2024-03-24T12:33:00.240Z,68.80
2024-03-24T12:34:00.266Z,66.47
2024-03-24T12:35:00.046Z,67.12
2024-03-24T12:36:00.768Z,69.93
2024-03-24T12:37:00.070Z,68.73
2024-03-24T12:38:00.114Z,69.86
2024-03-24T12:39:00.659Z,67.49
2024-03-24T12:40:00.217Z,67.83
2024-03-24T12:41:00.195Z,69.89
2024-03-24T12:42:00.271Z,70.44
2024-03-24T12:42:59.969Z,71.47
2024-03-24T12:44:00.365Z,71.26
2024-03-24T12:45:00.943Z,71.47
2024-03-24T12:46:01.484Z,70.37
2024-03-24T12:47:07.848Z,70.27
2024-03-24T12:47:59.957Z,70.68
2024-03-24T12:49:01.214Z,70.72
2024-03-24T12:50:59.974Z,70.47
2024-03-24T12:52:03.443Z,69.75
2024-03-24T12:52:59.787Z,70.03
2024-03-24T12:53:59.942Z,68.79
2024-03-24T12:54:59.983Z,70.23